sensor_id;sensor_type;location;lat;lon;timestamp;pressure;altitude;pressure_sealevel;temperature;humidity
41712;BME280;27399;51.516;13.670;2022-08-19T00:01:41;99621.78;;;26.22;76.37
41712;BME280;27399;51.516;13.670;2022-08-19T00:04:11;99619.75;;;26.03;76.78
41712;BME280;27399;51.516;13.670;2022-08-19T00:06:37;99616.44;;;26.21;76.33
41712;BME280;27399;51.516;13.670;2022-08-19T00:09:05;99626.16;;;26.35;75.62
41712;BME280;27399;51.516;13.670;2022-08-19T00:11:31;99629.38;;;26.19;76.08
41712;BME280;27399;51.516;13.670;2022-08-19T00:13:57;99624.75;;;26.19;76.25
41712;BME280;27399;51.516;13.670;2022-08-19T00:16:24;99622.44;;;26.14;76.22
41712;BME280;27399;51.516;13.670;2022-08-19T00:18:50;99617.53;;;25.97;77.00
41712;BME280;27399;51.516;13.670;2022-08-19T00:21:15;99630.19;;;26.09;76.56
41712;BME280;27399;51.516;13.670;2022-08-19T00:23:41;99630.06;;;25.99;76.78
41712;BME280;27399;51.516;13.670;2022-08-19T00:26:07;99639.69;;;25.82;77.34
41712;BME280;27399;51.516;13.670;2022-08-19T00:28:32;99647.19;;;25.80;77.56
41712;BME280;27399;51.516;13.670;2022-08-19T00:30:59;99641.88;;;26.00;77.24
41712;BME280;27399;51.516;13.670;2022-08-19T00:33:25;99647.25;;;25.90;77.32
41712;BME280;27399;51.516;13.670;2022-08-19T00:35:50;99642.38;;;25.94;77.32
41712;BME280;27399;51.516;13.670;2022-08-19T00:38:16;99645.66;;;26.09;76.86
41712;BME280;27399;51.516;13.670;2022-08-19T00:40:44;99653.13;;;25.74;77.66
41712;BME280;27399;51.516;13.670;2022-08-19T00:43:13;99670.09;;;25.57;79.97
41712;BME280;27399;51.516;13.670;2022-08-19T00:45:43;99675.25;;;25.71;80.09
41712;BME280;27399;51.516;13.670;2022-08-19T00:48:09;99677.78;;;25.51;81.66
41712;BME280;27399;51.516;13.670;2022-08-19T00:50:35;99677.22;;;25.80;80.88
41712;BME280;27399;51.516;13.670;2022-08-19T00:53:01;99679.84;;;25.71;81.51
41712;BME280;27399;51.516;13.670;2022-08-19T00:55:29;99682.84;;;25.56;82.42
41712;BME280;27399;51.516;13.670;2022-08-19T00:57:56;99679.56;;;25.18;83.19
41712;BME280;27399;51.516;13.670;2022-08-19T01:00:23;99681.16;;;25.10;83.98
41712;BME280;27399;51.516;13.670;2022-08-19T01:02:49;99685.25;;;25.27;83.50
41712;BME280;27399;51.516;13.670;2022-08-19T01:05:17;99680.88;;;25.35;83.25
41712;BME280;27399;51.516;13.670;2022-08-19T01:07:43;99669.72;;;25.50;82.55
41712;BME280;27399;51.516;13.670;2022-08-19T01:10:11;99680.88;;;25.35;83.33
41712;BME280;27399;51.516;13.670;2022-08-19T01:12:37;99669.34;;;25.32;83.61
41712;BME280;27399;51.516;13.670;2022-08-19T01:15:05;99671.09;;;25.33;83.42
41712;BME280;27399;51.516;13.670;2022-08-19T01:17:32;99682.50;;;25.27;83.86
41712;BME280;27399;51.516;13.670;2022-08-19T01:19:59;99696.38;;;25.35;83.23
41712;BME280;27399;51.516;13.670;2022-08-19T01:22:34;99694.41;;;25.26;83.68
41712;BME280;27399;51.516;13.670;2022-08-19T01:25:03;99700.34;;;25.19;84.37
41712;BME280;27399;51.516;13.670;2022-08-19T01:27:36;99690.84;;;25.02;84.87
41712;BME280;27399;51.516;13.670;2022-08-19T01:30:03;99682.28;;;24.84;85.36
41712;BME280;27399;51.516;13.670;2022-08-19T01:32:28;99688.53;;;24.62;86.44
41712;BME280;27399;51.516;13.670;2022-08-19T01:34:55;99687.97;;;25.04;84.54
41712;BME280;27399;51.516;13.670;2022-08-19T01:37:20;99685.38;;;24.80;85.77
41712;BME280;27399;51.516;13.670;2022-08-19T01:39:46;99671.84;;;25.01;84.75
41712;BME280;27399;51.516;13.670;2022-08-19T01:42:11;99671.47;;;24.94;85.30
41712;BME280;27399;51.516;13.670;2022-08-19T01:44:38;99682.38;;;24.94;85.09
41712;BME280;27399;51.516;13.670;2022-08-19T01:47:06;99690.84;;;24.91;84.85
41712;BME280;27399;51.516;13.670;2022-08-19T01:49:32;99681.03;;;25.00;84.72
41712;BME280;27399;51.516;13.670;2022-08-19T01:51:59;99679.56;;;25.18;84.02
41712;BME280;27399;51.516;13.670;2022-08-19T01:54:24;99680.28;;;25.09;84.18
41712;BME280;27399;51.516;13.670;2022-08-19T01:56:54;99682.00;;;25.10;84.38
41712;BME280;27399;51.516;13.670;2022-08-19T01:59:21;99685.63;;;24.88;84.68
41712;BME280;27399;51.516;13.670;2022-08-19T02:01:48;99681.53;;;24.94;84.64
41712;BME280;27399;51.516;13.670;2022-08-19T02:04:14;99671.63;;;25.15;83.79
41712;BME280;27399;51.516;13.670;2022-08-19T02:06:39;99674.59;;;25.01;84.07
41712;BME280;27399;51.516;13.670;2022-08-19T02:09:06;99670.63;;;24.94;84.37
41712;BME280;27399;51.516;13.670;2022-08-19T02:11:34;99669.25;;;24.88;84.78
41712;BME280;27399;51.516;13.670;2022-08-19T02:14:01;99668.38;;;24.87;84.18
41712;BME280;27399;51.516;13.670;2022-08-19T02:16:27;99673.97;;;24.97;84.42
41712;BME280;27399;51.516;13.670;2022-08-19T02:18:53;99670.13;;;25.00;84.13
41712;BME280;27399;51.516;13.670;2022-08-19T02:21:21;99678.06;;;25.03;84.03
41712;BME280;27399;51.516;13.670;2022-08-19T02:23:47;99676.31;;;24.90;84.34
41712;BME280;27399;51.516;13.670;2022-08-19T02:26:13;99686.09;;;24.82;84.68
41712;BME280;27399;51.516;13.670;2022-08-19T02:28:39;99682.75;;;24.89;84.67
41712;BME280;27399;51.516;13.670;2022-08-19T02:31:12;99689.47;;;24.97;84.38
41712;BME280;27399;51.516;13.670;2022-08-19T02:33:39;99690.03;;;24.66;85.40
41712;BME280;27399;51.516;13.670;2022-08-19T02:36:06;99681.53;;;24.71;85.66
41712;BME280;27399;51.516;13.670;2022-08-19T02:38:33;99681.53;;;24.94;84.53
41712;BME280;27399;51.516;13.670;2022-08-19T02:41:00;99685.50;;;24.89;84.49
41712;BME280;27399;51.516;13.670;2022-08-19T02:43:28;99689.22;;;24.88;84.62
41712;BME280;27399;51.516;13.670;2022-08-19T02:45:54;99689.97;;;25.02;83.89
41712;BME280;27399;51.516;13.670;2022-08-19T02:48:20;99689.97;;;25.02;84.06
41712;BME280;27399;51.516;13.670;2022-08-19T02:50:46;99689.72;;;24.82;84.42
41712;BME280;27399;51.516;13.670;2022-08-19T02:53:13;99683.00;;;25.09;83.48
41712;BME280;27399;51.516;13.670;2022-08-19T02:55:43;99673.34;;;24.94;84.39
41712;BME280;27399;51.516;13.670;2022-08-19T02:58:08;99666.78;;;25.08;83.64
41712;BME280;27399;51.516;13.670;2022-08-19T03:00:34;99665.41;;;24.90;83.92
41712;BME280;27399;51.516;13.670;2022-08-19T03:02:59;99663.94;;;24.75;84.56
41712;BME280;27399;51.516;13.670;2022-08-19T03:05:25;99674.34;;;24.81;84.66
41712;BME280;27399;51.516;13.670;2022-08-19T03:07:52;99662.06;;;24.75;84.48
41712;BME280;27399;51.516;13.670;2022-08-19T03:10:17;99672.78;;;24.66;85.03
41712;BME280;27399;51.516;13.670;2022-08-19T03:12:43;99677.81;;;24.95;84.08
41712;BME280;27399;51.516;13.670;2022-08-19T03:15:10;99677.06;;;24.81;84.43
41712;BME280;27399;51.516;13.670;2022-08-19T03:17:35;99693.44;;;25.04;83.38
41712;BME280;27399;51.516;13.670;2022-08-19T03:20:01;99689.47;;;24.85;84.21
41712;BME280;27399;51.516;13.670;2022-08-19T03:22:27;99687.00;;;24.82;84.22
41712;BME280;27399;51.516;13.670;2022-08-19T03:24:52;99687.81;;;24.71;84.57
41712;BME280;27399;51.516;13.670;2022-08-19T03:27:18;99690.56;;;24.83;84.34
41712;BME280;27399;51.516;13.670;2022-08-19T03:29:44;99696.38;;;24.78;84.40
41712;BME280;27399;51.516;13.670;2022-08-19T03:32:10;99687.72;;;24.73;84.26
41712;BME280;27399;51.516;13.670;2022-08-19T03:34:36;99687.38;;;24.89;83.66
41712;BME280;27399;51.516;13.670;2022-08-19T03:37:06;99705.09;;;24.95;83.38
41712;BME280;27399;51.516;13.670;2022-08-19T03:39:33;99691.69;;;24.80;83.72
41712;BME280;27399;51.516;13.670;2022-08-19T03:41:58;99679.66;;;24.71;84.14
41712;BME280;27399;51.516;13.670;2022-08-19T03:44:27;99680.31;;;24.86;83.32
41712;BME280;27399;51.516;13.670;2022-08-19T03:46:54;99677.06;;;24.81;83.95
41712;BME280;27399;51.516;13.670;2022-08-19T03:49:26;99682.53;;;24.93;83.28
41712;BME280;27399;51.516;13.670;2022-08-19T03:51:53;99677.56;;;24.98;82.96
41712;BME280;27399;51.516;13.670;2022-08-19T03:54:20;99681.00;;;24.77;83.74
41712;BME280;27399;51.516;13.670;2022-08-19T03:56:48;99682.00;;;24.87;83.04
41712;BME280;27399;51.516;13.670;2022-08-19T03:59:19;99688.72;;;24.95;83.07
41712;BME280;27399;51.516;13.670;2022-08-19T04:01:45;99688.13;;;24.91;82.95
41712;BME280;27399;51.516;13.670;2022-08-19T04:04:10;99686.00;;;24.83;83.39
41712;BME280;27399;51.516;13.670;2022-08-19T04:06:37;99685.38;;;24.80;83.62
41712;BME280;27399;51.516;13.670;2022-08-19T04:09:04;99683.34;;;24.59;84.08
41712;BME280;27399;51.516;13.670;2022-08-19T04:11:31;99680.97;;;24.66;83.95
41712;BME280;27399;51.516;13.670;2022-08-19T04:13:56;99683.50;;;24.91;83.36
41712;BME280;27399;51.516;13.670;2022-08-19T04:16:24;99683.53;;;25.03;82.53
41712;BME280;27399;51.516;13.670;2022-08-19T04:18:49;99692.56;;;25.03;82.56
41712;BME280;27399;51.516;13.670;2022-08-19T04:21:19;99688.22;;;24.78;83.58
41712;BME280;27399;51.516;13.670;2022-08-19T04:23:45;99691.44;;;24.83;83.33
41712;BME280;27399;51.516;13.670;2022-08-19T04:26:14;99698.75;;;24.94;82.98
41712;BME280;27399;51.516;13.670;2022-08-19T04:28:40;99700.13;;;25.00;82.98
41712;BME280;27399;51.516;13.670;2022-08-19T04:31:06;99691.44;;;24.72;83.44
41712;BME280;27399;51.516;13.670;2022-08-19T04:33:37;99694.19;;;24.95;83.09
41712;BME280;27399;51.516;13.670;2022-08-19T04:36:02;99692.22;;;24.97;82.82
41712;BME280;27399;51.516;13.670;2022-08-19T04:38:28;99698.50;;;24.97;82.85
41712;BME280;27399;51.516;13.670;2022-08-19T04:40:53;99702.59;;;24.91;83.05
41712;BME280;27399;51.516;13.670;2022-08-19T04:43:37;99698.50;;;24.97;82.67
41712;BME280;27399;51.516;13.670;2022-08-19T04:46:07;99696.41;;;24.89;83.16
41712;BME280;27399;51.516;13.670;2022-08-19T04:48:33;99703.59;;;24.90;83.55
41712;BME280;27399;51.516;13.670;2022-08-19T04:50:58;99718.72;;;24.83;83.55
41712;BME280;27399;51.516;13.670;2022-08-19T04:53:30;99714.69;;;24.65;83.97
41712;BME280;27399;51.516;13.670;2022-08-19T04:55:57;99724.91;;;24.74;84.04
41712;BME280;27399;51.516;13.670;2022-08-19T04:58:23;99717.22;;;24.90;83.54
41712;BME280;27399;51.516;13.670;2022-08-19T05:00:49;99708.66;;;24.72;84.15
41712;BME280;27399;51.516;13.670;2022-08-19T05:03:14;99708.03;;;24.80;83.87
41712;BME280;27399;51.516;13.670;2022-08-19T05:05:42;99726.38;;;24.78;84.10
41712;BME280;27399;51.516;13.670;2022-08-19T05:08:08;99729.72;;;24.82;83.90
41712;BME280;27399;51.516;13.670;2022-08-19T05:10:36;99735.69;;;24.87;83.74
41712;BME280;27399;51.516;13.670;2022-08-19T05:13:02;99736.09;;;24.94;83.46
41712;BME280;27399;51.516;13.670;2022-08-19T05:15:28;99735.81;;;24.74;84.07
41712;BME280;27399;51.516;13.670;2022-08-19T05:17:53;99739.78;;;24.81;84.35
41712;BME280;27399;51.516;13.670;2022-08-19T05:20:40;99748.22;;;24.89;84.05
41712;BME280;27399;51.516;13.670;2022-08-19T05:23:24;99741.81;;;24.66;84.64
41712;BME280;27399;51.516;13.670;2022-08-19T05:25:50;99743.50;;;24.80;84.41
41712;BME280;27399;51.516;13.670;2022-08-19T05:28:16;99743.34;;;24.82;84.37
41712;BME280;27399;51.516;13.670;2022-08-19T05:30:42;99751.66;;;24.80;84.13
41712;BME280;27399;51.516;13.670;2022-08-19T05:33:10;99752.88;;;24.65;85.12
41712;BME280;27399;51.516;13.670;2022-08-19T05:35:36;99744.78;;;24.63;85.04
41712;BME280;27399;51.516;13.670;2022-08-19T05:38:02;99752.81;;;24.53;85.15
41712;BME280;27399;51.516;13.670;2022-08-19T05:40:28;99756.91;;;24.48;85.57
41712;BME280;27399;51.516;13.670;2022-08-19T05:42:53;99757.78;;;24.59;84.93
41712;BME280;27399;51.516;13.670;2022-08-19T05:45:19;99756.41;;;24.54;85.13
41712;BME280;27399;51.516;13.670;2022-08-19T05:47:46;99757.84;;;24.71;84.56
41712;BME280;27399;51.516;13.670;2022-08-19T05:50:11;99756.31;;;24.67;84.34
41712;BME280;27399;51.516;13.670;2022-08-19T05:52:37;99755.75;;;24.39;85.50
41712;BME280;27399;51.516;13.670;2022-08-19T05:55:03;99752.88;;;24.65;84.53
41712;BME280;27399;51.516;13.670;2022-08-19T05:57:28;99753.19;;;24.84;84.11
41712;BME280;27399;51.516;13.670;2022-08-19T05:59:55;99753.22;;;24.60;84.28
41712;BME280;27399;51.516;13.670;2022-08-19T06:02:21;99764.50;;;24.31;85.78
41712;BME280;27399;51.516;13.670;2022-08-19T06:04:47;99773.44;;;24.69;84.21
41712;BME280;27399;51.516;13.670;2022-08-19T06:07:12;99786.53;;;24.88;83.67
41712;BME280;27399;51.516;13.670;2022-08-19T06:09:38;99798.63;;;24.72;84.40
41712;BME280;27399;51.516;13.670;2022-08-19T06:12:04;99792.56;;;24.80;83.90
41712;BME280;27399;51.516;13.670;2022-08-19T06:14:30;99800.91;;;24.54;84.48
41712;BME280;27399;51.516;13.670;2022-08-19T06:16:56;99799.31;;;24.63;84.45
41712;BME280;27399;51.516;13.670;2022-08-19T06:19:22;99802.88;;;24.52;84.68
41712;BME280;27399;51.516;13.670;2022-08-19T06:21:50;99804.53;;;24.66;84.40
41712;BME280;27399;51.516;13.670;2022-08-19T06:24:17;99818.00;;;24.81;84.10
41712;BME280;27399;51.516;13.670;2022-08-19T06:26:44;99821.31;;;24.73;84.31
41712;BME280;27399;51.516;13.670;2022-08-19T06:29:11;99825.31;;;24.56;84.52
41712;BME280;27399;51.516;13.670;2022-08-19T06:31:40;99831.47;;;24.71;84.13
41712;BME280;27399;51.516;13.670;2022-08-19T06:34:06;99839.97;;;24.66;84.70
41712;BME280;27399;51.516;13.670;2022-08-19T06:36:33;99837.78;;;24.47;85.13
41712;BME280;27399;51.516;13.670;2022-08-19T06:38:59;99838.44;;;24.75;83.93
41712;BME280;27399;51.516;13.670;2022-08-19T06:41:25;99839.41;;;24.74;84.33
41712;BME280;27399;51.516;13.670;2022-08-19T06:43:51;99846.66;;;24.86;83.85
41712;BME280;27399;51.516;13.670;2022-08-19T06:46:17;99854.56;;;24.89;83.67
41712;BME280;27399;51.516;13.670;2022-08-19T06:48:43;99844.59;;;24.77;84.38
41712;BME280;27399;51.516;13.670;2022-08-19T06:51:09;99856.53;;;24.63;84.82
41712;BME280;27399;51.516;13.670;2022-08-19T06:53:35;99864.22;;;24.82;83.75
41712;BME280;27399;51.516;13.670;2022-08-19T06:56:00;99879.47;;;24.60;84.98
41712;BME280;27399;51.516;13.670;2022-08-19T06:58:30;99873.16;;;24.60;85.15
41712;BME280;27399;51.516;13.670;2022-08-19T07:01:01;99878.66;;;24.71;84.33
41712;BME280;27399;51.516;13.670;2022-08-19T07:03:28;99885.97;;;24.71;84.26
41712;BME280;27399;51.516;13.670;2022-08-19T07:05:54;99891.13;;;24.63;84.76
41712;BME280;27399;51.516;13.670;2022-08-19T07:08:19;99889.50;;;24.84;83.90
41712;BME280;27399;51.516;13.670;2022-08-19T07:10:45;99889.88;;;24.67;84.41
41712;BME280;27399;51.516;13.670;2022-08-19T07:13:10;99887.75;;;24.35;86.23
41712;BME280;27399;51.516;13.670;2022-08-19T07:15:36;99888.91;;;24.68;84.91
41712;BME280;27399;51.516;13.670;2022-08-19T07:18:02;99892.94;;;24.75;84.69
41712;BME280;27399;51.516;13.670;2022-08-19T07:20:28;99904.69;;;24.27;86.19
41712;BME280;27399;51.516;13.670;2022-08-19T07:22:53;99896.31;;;24.66;84.91
41712;BME280;27399;51.516;13.670;2022-08-19T07:25:18;99895.47;;;24.65;84.95
41712;BME280;27399;51.516;13.670;2022-08-19T07:27:48;99893.31;;;24.57;84.72
41712;BME280;27399;51.516;13.670;2022-08-19T07:30:13;99896.94;;;24.82;83.91
41712;BME280;27399;51.516;13.670;2022-08-19T07:32:39;99894.28;;;24.69;84.64
41712;BME280;27399;51.516;13.670;2022-08-19T07:35:05;99898.84;;;24.44;85.30
41712;BME280;27399;51.516;13.670;2022-08-19T07:37:31;99900.91;;;24.65;84.67
41712;BME280;27399;51.516;13.670;2022-08-19T07:39:56;99909.66;;;24.57;84.83
41712;BME280;27399;51.516;13.670;2022-08-19T07:42:22;99914.00;;;24.73;84.48
41712;BME280;27399;51.516;13.670;2022-08-19T07:44:47;99910.03;;;24.77;84.37
41712;BME280;27399;51.516;13.670;2022-08-19T07:47:13;99907.97;;;24.81;84.44
41712;BME280;27399;51.516;13.670;2022-08-19T07:49:40;99901.00;;;24.77;84.60
41712;BME280;27399;51.516;13.670;2022-08-19T07:52:07;99896.19;;;24.80;84.32
41712;BME280;27399;51.516;13.670;2022-08-19T07:54:33;99899.22;;;25.00;83.89
41712;BME280;27399;51.516;13.670;2022-08-19T07:57:00;99887.78;;;24.83;84.48
41712;BME280;27399;51.516;13.670;2022-08-19T07:59:26;99888.47;;;24.74;84.90
41712;BME280;27399;51.516;13.670;2022-08-19T08:01:53;99884.34;;;24.93;84.73
41712;BME280;27399;51.516;13.670;2022-08-19T08:04:19;99884.13;;;25.07;83.72
41712;BME280;27399;51.516;13.670;2022-08-19T08:07:04;99888.09;;;25.03;84.36
41712;BME280;27399;51.516;13.670;2022-08-19T08:09:48;99883.84;;;24.99;83.98
41712;BME280;27399;51.516;13.670;2022-08-19T08:12:15;99883.47;;;25.03;84.24
41712;BME280;27399;51.516;13.670;2022-08-19T08:14:43;99889.34;;;25.10;83.77
41712;BME280;27399;51.516;13.670;2022-08-19T08:17:09;99888.47;;;25.10;83.66
41712;BME280;27399;51.516;13.670;2022-08-19T08:19:35;99897.53;;;25.10;83.91
41712;BME280;27399;51.516;13.670;2022-08-19T08:22:00;99906.41;;;25.01;84.66
41712;BME280;27399;51.516;13.670;2022-08-19T08:24:27;99915.84;;;24.72;85.34
41712;BME280;27399;51.516;13.670;2022-08-19T08:26:52;99917.81;;;24.95;84.73
41712;BME280;27399;51.516;13.670;2022-08-19T08:29:18;99918.09;;;25.03;84.35
41712;BME280;27399;51.516;13.670;2022-08-19T08:31:44;99915.13;;;25.06;84.42
41712;BME280;27399;51.516;13.670;2022-08-19T08:34:10;99907.84;;;24.82;85.47
41712;BME280;27399;51.516;13.670;2022-08-19T08:36:37;99910.94;;;25.13;84.57
41712;BME280;27399;51.516;13.670;2022-08-19T08:39:06;99919.59;;;24.83;85.54
41712;BME280;27399;51.516;13.670;2022-08-19T08:41:37;99915.50;;;25.01;84.91
41712;BME280;27399;51.516;13.670;2022-08-19T08:44:06;99915.91;;;25.19;84.44
41712;BME280;27399;51.516;13.670;2022-08-19T08:46:41;99919.78;;;24.93;85.32
41712;BME280;27399;51.516;13.670;2022-08-19T08:49:24;99924.56;;;24.78;85.83
41712;BME280;27399;51.516;13.670;2022-08-19T08:51:52;99921.59;;;24.81;85.33
41712;BME280;27399;51.516;13.670;2022-08-19T08:54:20;99924.75;;;24.99;85.56
41712;BME280;27399;51.516;13.670;2022-08-19T08:56:50;99921.97;;;25.12;84.96
41712;BME280;27399;51.516;13.670;2022-08-19T08:59:21;99929.50;;;25.08;84.68
41712;BME280;27399;51.516;13.670;2022-08-19T09:01:49;99921.44;;;25.06;84.64
41712;BME280;27399;51.516;13.670;2022-08-19T09:04:15;99921.84;;;25.13;85.01
41712;BME280;27399;51.516;13.670;2022-08-19T09:09:35;99928.47;;;25.33;84.18
41712;BME280;27399;51.516;13.670;2022-08-19T09:12:10;99936.97;;;25.42;83.59
41712;BME280;27399;51.516;13.670;2022-08-19T09:17:10;99918.66;;;25.31;83.75
41712;BME280;27399;51.516;13.670;2022-08-19T09:22:34;99923.06;;;25.56;83.50
41712;BME280;27399;51.516;13.670;2022-08-19T09:25:00;99922.38;;;25.65;82.88
41712;BME280;27399;51.516;13.670;2022-08-19T09:27:26;99932.25;;;25.66;82.80
41712;BME280;27399;51.516;13.670;2022-08-19T09:29:52;99940.25;;;25.34;83.40
41712;BME280;27399;51.516;13.670;2022-08-19T09:32:19;99941.84;;;25.61;82.15
41712;BME280;27399;51.516;13.670;2022-08-19T09:34:44;99942.63;;;25.38;82.96
41712;BME280;27399;51.516;13.670;2022-08-19T09:37:10;99947.56;;;25.69;82.50
41712;BME280;27399;51.516;13.670;2022-08-19T09:39:35;99949.00;;;25.50;82.77
41712;BME280;27399;51.516;13.670;2022-08-19T09:42:02;99945.78;;;25.57;82.46
41712;BME280;27399;51.516;13.670;2022-08-19T09:44:28;99945.63;;;25.47;82.63
41712;BME280;27399;51.516;13.670;2022-08-19T09:46:54;99936.63;;;25.58;82.05
41712;BME280;27399;51.516;13.670;2022-08-19T09:49:19;99930.91;;;25.72;82.19
41712;BME280;27399;51.516;13.670;2022-08-19T09:51:49;99929.66;;;25.65;82.80
41712;BME280;27399;51.516;13.670;2022-08-19T09:54:14;99925.91;;;25.43;83.37
41712;BME280;27399;51.516;13.670;2022-08-19T09:56:40;99916.25;;;25.62;82.56
41712;BME280;27399;51.516;13.670;2022-08-19T09:59:05;99908.94;;;25.62;82.29
41712;BME280;27399;51.516;13.670;2022-08-19T10:01:31;99910.94;;;25.83;82.06
41712;BME280;27399;51.516;13.670;2022-08-19T10:03:58;99909.69;;;26.10;80.98
41712;BME280;27399;51.516;13.670;2022-08-19T10:06:24;99912.06;;;25.92;80.66
41712;BME280;27399;51.516;13.670;2022-08-19T10:08:51;99907.69;;;25.78;82.21
41712;BME280;27399;51.516;13.670;2022-08-19T10:11:17;99916.53;;;25.70;82.97
41712;BME280;27399;51.516;13.670;2022-08-19T10:13:43;99913.28;;;25.99;81.93
41712;BME280;27399;51.516;13.670;2022-08-19T10:16:10;99919.00;;;25.73;82.40
41712;BME280;27399;51.516;13.670;2022-08-19T10:18:37;99921.13;;;26.04;81.63
41712;BME280;27399;51.516;13.670;2022-08-19T10:21:08;99926.94;;;25.88;81.97
41712;BME280;27399;51.516;13.670;2022-08-19T10:23:34;99919.38;;;25.80;81.54
41712;BME280;27399;51.516;13.670;2022-08-19T10:26:00;99919.50;;;26.01;81.25
41712;BME280;27399;51.516;13.670;2022-08-19T10:28:25;99923.22;;;25.89;81.98
41712;BME280;27399;51.516;13.670;2022-08-19T10:30:50;99932.03;;;25.92;81.21
41712;BME280;27399;51.516;13.670;2022-08-19T10:33:16;99937.38;;;25.82;81.50
41712;BME280;27399;51.516;13.670;2022-08-19T10:35:41;99940.63;;;25.99;81.03
41712;BME280;27399;51.516;13.670;2022-08-19T10:38:06;99937.63;;;25.68;81.88
41712;BME280;27399;51.516;13.670;2022-08-19T10:40:32;99950.66;;;25.76;81.44
41712;BME280;27399;51.516;13.670;2022-08-19T10:42:57;99957.84;;;25.77;81.84
41712;BME280;27399;51.516;13.670;2022-08-19T10:45:23;99969.06;;;25.96;81.42
41712;BME280;27399;51.516;13.670;2022-08-19T10:47:52;99965.19;;;25.88;81.15
41712;BME280;27399;51.516;13.670;2022-08-19T10:50:17;99963.22;;;25.90;81.63
41712;BME280;27399;51.516;13.670;2022-08-19T10:53:05;99957.38;;;25.94;81.26
41712;BME280;27399;51.516;13.670;2022-08-19T10:55:31;99957.75;;;26.01;81.15
41712;BME280;27399;51.516;13.670;2022-08-19T10:58:16;99967.69;;;26.02;81.34
41712;BME280;27399;51.516;13.670;2022-08-19T11:00:42;99975.38;;;26.08;80.74
41712;BME280;27399;51.516;13.670;2022-08-19T11:03:10;99975.38;;;25.97;81.46
41712;BME280;27399;51.516;13.670;2022-08-19T11:05:36;99977.13;;;25.98;80.96
41712;BME280;27399;51.516;13.670;2022-08-19T11:08:03;99985.53;;;25.83;81.63
41712;BME280;27399;51.516;13.670;2022-08-19T11:10:28;99973.88;;;25.81;81.64
41712;BME280;27399;51.516;13.670;2022-08-19T11:12:53;99984.91;;;25.68;81.69
41712;BME280;27399;51.516;13.670;2022-08-19T11:15:19;99992.13;;;25.92;81.71
41712;BME280;27399;51.516;13.670;2022-08-19T11:17:45;99997.19;;;25.74;82.30
41712;BME280;27399;51.516;13.670;2022-08-19T11:20:11;100005.94;;;25.91;81.93
41712;BME280;27399;51.516;13.670;2022-08-19T11:22:37;99998.91;;;25.64;82.15
41712;BME280;27399;51.516;13.670;2022-08-19T11:25:02;100002.13;;;25.58;82.61
41712;BME280;27399;51.516;13.670;2022-08-19T11:27:28;100004.13;;;25.67;82.55
41712;BME280;27399;51.516;13.670;2022-08-19T11:29:54;100017.00;;;25.53;82.62
41712;BME280;27399;51.516;13.670;2022-08-19T11:32:19;100011.09;;;25.11;84.33
41712;BME280;27399;51.516;13.670;2022-08-19T11:34:45;100009.81;;;25.52;82.68
41712;BME280;27399;51.516;13.670;2022-08-19T11:37:10;100014.13;;;25.19;83.51
41712;BME280;27399;51.516;13.670;2022-08-19T11:39:36;100012.88;;;25.48;83.32
41712;BME280;27399;51.516;13.670;2022-08-19T11:42:02;100027.28;;;25.50;82.93
41712;BME280;27399;51.516;13.670;2022-08-19T11:47:50;100029.50;;;25.80;81.60
41712;BME280;27399;51.516;13.670;2022-08-19T11:50:16;100031.81;;;25.38;82.96
41712;BME280;27399;51.516;13.670;2022-08-19T11:52:41;100036.66;;;25.59;82.75
41712;BME280;27399;51.516;13.670;2022-08-19T11:55:10;100031.72;;;25.75;81.78
41712;BME280;27399;51.516;13.670;2022-08-19T11:57:35;100030.56;;;25.55;83.16
41712;BME280;27399;51.516;13.670;2022-08-19T12:00:01;100033.31;;;25.78;82.00
41712;BME280;27399;51.516;13.670;2022-08-19T12:02:26;100028.22;;;25.73;82.10
41712;BME280;27399;51.516;13.670;2022-08-19T12:04:52;100034.31;;;25.41;83.19
41712;BME280;27399;51.516;13.670;2022-08-19T12:07:17;100028.91;;;25.28;83.77
41712;BME280;27399;51.516;13.670;2022-08-19T12:09:43;100033.38;;;25.53;82.97
41712;BME280;27399;51.516;13.670;2022-08-19T12:12:08;100036.25;;;25.52;82.80
41712;BME280;27399;51.516;13.670;2022-08-19T12:14:34;100032.41;;;25.55;82.79
41712;BME280;27399;51.516;13.670;2022-08-19T12:16:59;100035.56;;;25.73;81.97
41712;BME280;27399;51.516;13.670;2022-08-19T12:19:25;100043.00;;;25.71;82.35
41712;BME280;27399;51.516;13.670;2022-08-19T12:21:51;100048.63;;;25.45;82.73
41712;BME280;27399;51.516;13.670;2022-08-19T12:24:18;100044.03;;;25.45;82.60
41712;BME280;27399;51.516;13.670;2022-08-19T12:26:48;100049.41;;;25.34;82.51
41712;BME280;27399;51.516;13.670;2022-08-19T12:29:13;100041.53;;;25.42;82.49
41712;BME280;27399;51.516;13.670;2022-08-19T12:31:39;100035.41;;;25.38;83.32
41712;BME280;27399;51.516;13.670;2022-08-19T12:34:05;100044.78;;;25.47;82.56
41712;BME280;27399;51.516;13.670;2022-08-19T12:36:30;100041.94;;;25.49;82.85
41712;BME280;27399;51.516;13.670;2022-08-19T12:38:58;100045.34;;;25.40;83.01
41712;BME280;27399;51.516;13.670;2022-08-19T12:41:24;100036.88;;;25.56;82.48
41712;BME280;27399;51.516;13.670;2022-08-19T12:43:50;100029.31;;;25.35;83.04
41712;BME280;27399;51.516;13.670;2022-08-19T12:46:15;100038.88;;;25.05;83.68
41712;BME280;27399;51.516;13.670;2022-08-19T12:48:41;100041.03;;;25.24;83.82
41712;BME280;27399;51.516;13.670;2022-08-19T12:51:07;100059.50;;;25.20;83.14
41712;BME280;27399;51.516;13.670;2022-08-19T12:53:34;100061.84;;;25.38;82.93
41712;BME280;27399;51.516;13.670;2022-08-19T12:56:00;100066.50;;;25.25;83.13
41712;BME280;27399;51.516;13.670;2022-08-19T12:58:26;100068.34;;;25.00;84.74